Aeroporto :
LOGIN :

Iscrizione | Disclaimer

   EN    FR    IT 

 










Sommario :    VFR   VFR Marginale   IFR   IFR Intensivo   IFR Molto Intensivo
Visibilità : 
Base nubi : 
>= 8 km
>= 3000ft
5 / 8 km
1000 / 3000 ft
1500m / 5 km
500 / 1000 ft
800 / 1500m
200 / 500 ft
< 800m
< 200 ft
Simboli :   Temporali  Nebbia  Neve Forte  Precipitazioni Forti  Vento > 20 kt
SIGMETs :   Varie  Temporali  Ghiacco  Turbolenza  Onda orograficha  Ceneri Vulcaniche






- Altitudine del aeroporto : 909 ft
- Codice IATA : KSF


EDVK - Kassel Calden

ULTIMO METAR :
  • 131420Z 22008KT 170V240 9999 BKN016 05/02 Q1001

METARs OBSOLETI :
  • 131350Z 21009KT 9999 BKN017 BKN039 05/02 Q1001
  • 131320Z 20012KT 9999 SCT016 BKN039 05/02 Q1001
  • 131250Z 21012KT 9999 SCT016 BKN039 05/02 Q1001
  • 131220Z 22012KT 9999 FEW016 BKN041 04/02 Q1001
  • 131150Z 19010KT 160V230 9999 SCT015 BKN042 04/01 Q1001

TAF TAF EDVK
Valido dal 13 a 15 ore il 14 a 00 ore UTC


131400Z 1315/1324 20009KT 9999 SCT015 BKN035
PROB30
TEMPO 1321/1324 BKN012



MetMap, La meteo Aeronautica in un colpo d'occhio ! - Copyright ORBIFLY Dicembre 2007 - Disclaimer

ORBIFLY MET'MAP TEAM :

Programmazione e sviluppo : Alexandra Zaïnal
Concezione e sviluppo : Baudouin d'Aumeries
Co-Programmazione e sviluppo : Marc-Olivier Méhu
Supporto tecnico e logistico : Manuel Goepfert
Aiuto per la traduzione : Arnaldo La Scala

Contatto : metmap@orbifly.com




FONTI E CREDITI :

   NOAA